sensor_id;sensor_type;location;lat;lon;timestamp;P1;durP1;ratioP1;P2;durP2;ratioP2
52764;SDS011;38650;44.536;18.664;2024-02-15T00:02:13;29.27;;;23.27;;
52764;SDS011;38650;44.536;18.664;2024-02-15T00:04:39;38.75;;;27.90;;
52764;SDS011;38650;44.536;18.664;2024-02-15T00:07:05;32.50;;;23.77;;
52764;SDS011;38650;44.536;18.664;2024-02-15T00:09:31;26.17;;;20.65;;
52764;SDS011;38650;44.536;18.664;2024-02-15T00:11:56;29.85;;;20.75;;
52764;SDS011;38650;44.536;18.664;2024-02-15T00:14:22;27.83;;;20.70;;
52764;SDS011;38650;44.536;18.664;2024-02-15T00:16:48;29.52;;;20.67;;
52764;SDS011;38650;44.536;18.664;2024-02-15T00:19:13;30.75;;;21.10;;
52764;SDS011;38650;44.536;18.664;2024-02-15T00:21:45;42.65;;;29.02;;
52764;SDS011;38650;44.536;18.664;2024-02-15T00:24:11;34.88;;;24.83;;
52764;SDS011;38650;44.536;18.664;2024-02-15T00:26:37;28.95;;;22.85;;
52764;SDS011;38650;44.536;18.664;2024-02-15T00:29:03;26.33;;;20.65;;
52764;SDS011;38650;44.536;18.664;2024-02-15T00:31:29;25.25;;;18.30;;
52764;SDS011;38650;44.536;18.664;2024-02-15T00:33:54;22.58;;;17.42;;
52764;SDS011;38650;44.536;18.664;2024-02-15T00:36:20;19.60;;;15.48;;
52764;SDS011;38650;44.536;18.664;2024-02-15T00:38:46;20.30;;;15.15;;
52764;SDS011;38650;44.536;18.664;2024-02-15T00:41:12;21.23;;;16.48;;
52764;SDS011;38650;44.536;18.664;2024-02-15T00:43:37;21.15;;;16.80;;
52764;SDS011;38650;44.536;18.664;2024-02-15T00:46:03;25.85;;;18.77;;
52764;SDS011;38650;44.536;18.664;2024-02-15T00:48:29;25.73;;;18.42;;
52764;SDS011;38650;44.536;18.664;2024-02-15T00:50:57;28.92;;;20.13;;
52764;SDS011;38650;44.536;18.664;2024-02-15T00:53:24;31.15;;;23.38;;
52764;SDS011;38650;44.536;18.664;2024-02-15T00:55:50;33.13;;;23.17;;
52764;SDS011;38650;44.536;18.664;2024-02-15T00:58:16;26.40;;;20.17;;
52764;SDS011;38650;44.536;18.664;2024-02-15T01:00:42;31.30;;;23.23;;
52764;SDS011;38650;44.536;18.664;2024-02-15T01:03:07;29.95;;;21.42;;
52764;SDS011;38650;44.536;18.664;2024-02-15T01:05:33;24.77;;;18.33;;
52764;SDS011;38650;44.536;18.664;2024-02-15T01:07:59;25.73;;;18.13;;
52764;SDS011;38650;44.536;18.664;2024-02-15T01:10:25;21.23;;;17.20;;
52764;SDS011;38650;44.536;18.664;2024-02-15T01:12:51;19.73;;;16.25;;
52764;SDS011;38650;44.536;18.664;2024-02-15T01:15:17;20.23;;;15.27;;
52764;SDS011;38650;44.536;18.664;2024-02-15T01:17:45;18.00;;;13.73;;
52764;SDS011;38650;44.536;18.664;2024-02-15T01:20:10;14.25;;;11.43;;
52764;SDS011;38650;44.536;18.664;2024-02-15T01:22:37;14.27;;;11.38;;
52764;SDS011;38650;44.536;18.664;2024-02-15T01:25:02;16.48;;;12.45;;
52764;SDS011;38650;44.536;18.664;2024-02-15T01:27:28;15.13;;;11.50;;
52764;SDS011;38650;44.536;18.664;2024-02-15T01:29:54;13.00;;;9.88;;
52764;SDS011;38650;44.536;18.664;2024-02-15T01:32:21;14.02;;;10.75;;
52764;SDS011;38650;44.536;18.664;2024-02-15T01:34:46;12.60;;;10.43;;
52764;SDS011;38650;44.536;18.664;2024-02-15T01:37:12;13.23;;;10.65;;
52764;SDS011;38650;44.536;18.664;2024-02-15T01:39:38;13.48;;;11.15;;
52764;SDS011;38650;44.536;18.664;2024-02-15T01:42:03;10.82;;;9.55;;
52764;SDS011;38650;44.536;18.664;2024-02-15T01:44:30;12.57;;;10.85;;
52764;SDS011;38650;44.536;18.664;2024-02-15T01:46:55;12.25;;;10.35;;
52764;SDS011;38650;44.536;18.664;2024-02-15T01:49:22;13.13;;;10.63;;
52764;SDS011;38650;44.536;18.664;2024-02-15T01:51:50;14.10;;;11.05;;
52764;SDS011;38650;44.536;18.664;2024-02-15T01:54:17;12.65;;;10.18;;
52764;SDS011;38650;44.536;18.664;2024-02-15T01:56:44;12.30;;;9.85;;
52764;SDS011;38650;44.536;18.664;2024-02-15T01:59:10;26.00;;;18.42;;
52764;SDS011;38650;44.536;18.664;2024-02-15T02:01:39;20.27;;;14.45;;
52764;SDS011;38650;44.536;18.664;2024-02-15T02:04:06;16.98;;;12.98;;
52764;SDS011;38650;44.536;18.664;2024-02-15T02:06:33;15.90;;;12.35;;
52764;SDS011;38650;44.536;18.664;2024-02-15T02:08:59;17.02;;;12.30;;
52764;SDS011;38650;44.536;18.664;2024-02-15T02:11:27;13.10;;;10.32;;
52764;SDS011;38650;44.536;18.664;2024-02-15T02:13:54;14.43;;;10.90;;
52764;SDS011;38650;44.536;18.664;2024-02-15T02:16:27;13.48;;;9.50;;
52764;SDS011;38650;44.536;18.664;2024-02-15T02:18:57;12.73;;;9.32;;
52764;SDS011;38650;44.536;18.664;2024-02-15T02:21:23;11.32;;;10.00;;
52764;SDS011;38650;44.536;18.664;2024-02-15T02:23:55;11.43;;;9.60;;
52764;SDS011;38650;44.536;18.664;2024-02-15T02:26:22;13.15;;;10.00;;
52764;SDS011;38650;44.536;18.664;2024-02-15T02:28:49;13.10;;;10.60;;
52764;SDS011;38650;44.536;18.664;2024-02-15T02:31:16;15.23;;;11.02;;
52764;SDS011;38650;44.536;18.664;2024-02-15T02:33:41;14.35;;;11.27;;
52764;SDS011;38650;44.536;18.664;2024-02-15T02:36:12;13.65;;;10.32;;
52764;SDS011;38650;44.536;18.664;2024-02-15T02:38:38;20.98;;;14.48;;
52764;SDS011;38650;44.536;18.664;2024-02-15T02:41:05;15.07;;;12.20;;
52764;SDS011;38650;44.536;18.664;2024-02-15T02:43:30;13.23;;;11.02;;
52764;SDS011;38650;44.536;18.664;2024-02-15T02:45:56;16.98;;;14.43;;
52764;SDS011;38650;44.536;18.664;2024-02-15T02:48:22;18.13;;;13.05;;
52764;SDS011;38650;44.536;18.664;2024-02-15T02:50:50;17.75;;;13.77;;
52764;SDS011;38650;44.536;18.664;2024-02-15T02:53:16;23.38;;;17.33;;
52764;SDS011;38650;44.536;18.664;2024-02-15T02:55:42;18.00;;;13.15;;
52764;SDS011;38650;44.536;18.664;2024-02-15T02:58:07;23.10;;;16.30;;
52764;SDS011;38650;44.536;18.664;2024-02-15T03:00:33;27.48;;;19.15;;
52764;SDS011;38650;44.536;18.664;2024-02-15T03:02:59;21.40;;;15.35;;
52764;SDS011;38650;44.536;18.664;2024-02-15T03:05:25;18.40;;;14.45;;
52764;SDS011;38650;44.536;18.664;2024-02-15T03:07:51;19.52;;;14.82;;
52764;SDS011;38650;44.536;18.664;2024-02-15T03:10:17;16.02;;;12.43;;
52764;SDS011;38650;44.536;18.664;2024-02-15T03:12:43;20.73;;;16.10;;
52764;SDS011;38650;44.536;18.664;2024-02-15T03:15:12;19.15;;;14.73;;
52764;SDS011;38650;44.536;18.664;2024-02-15T03:17:42;18.42;;;14.55;;
52764;SDS011;38650;44.536;18.664;2024-02-15T03:20:09;18.30;;;13.98;;
52764;SDS011;38650;44.536;18.664;2024-02-15T03:22:37;16.02;;;12.20;;
52764;SDS011;38650;44.536;18.664;2024-02-15T03:25:06;16.60;;;12.60;;
52764;SDS011;38650;44.536;18.664;2024-02-15T03:27:35;13.00;;;10.73;;
52764;SDS011;38650;44.536;18.664;2024-02-15T03:30:02;14.05;;;10.15;;
52764;SDS011;38650;44.536;18.664;2024-02-15T03:32:29;13.60;;;11.40;;
52764;SDS011;38650;44.536;18.664;2024-02-15T03:34:55;13.15;;;10.25;;
52764;SDS011;38650;44.536;18.664;2024-02-15T03:37:20;14.48;;;11.20;;
52764;SDS011;38650;44.536;18.664;2024-02-15T03:39:46;12.18;;;9.68;;
52764;SDS011;38650;44.536;18.664;2024-02-15T03:42:12;13.50;;;9.95;;
52764;SDS011;38650;44.536;18.664;2024-02-15T03:44:37;12.70;;;9.95;;
52764;SDS011;38650;44.536;18.664;2024-02-15T03:47:04;16.13;;;12.85;;
52764;SDS011;38650;44.536;18.664;2024-02-15T03:49:30;18.50;;;14.18;;
52764;SDS011;38650;44.536;18.664;2024-02-15T03:51:56;15.48;;;13.02;;
52764;SDS011;38650;44.536;18.664;2024-02-15T03:54:24;15.48;;;12.15;;
52764;SDS011;38650;44.536;18.664;2024-02-15T03:56:50;16.23;;;13.15;;
52764;SDS011;38650;44.536;18.664;2024-02-15T03:59:20;21.52;;;16.85;;
52764;SDS011;38650;44.536;18.664;2024-02-15T04:01:51;30.55;;;21.92;;
52764;SDS011;38650;44.536;18.664;2024-02-15T04:04:20;24.10;;;18.13;;
52764;SDS011;38650;44.536;18.664;2024-02-15T04:06:46;23.33;;;16.35;;
52764;SDS011;38650;44.536;18.664;2024-02-15T04:09:16;21.67;;;15.93;;
52764;SDS011;38650;44.536;18.664;2024-02-15T04:11:43;21.95;;;15.45;;
52764;SDS011;38650;44.536;18.664;2024-02-15T04:14:15;30.15;;;22.27;;
52764;SDS011;38650;44.536;18.664;2024-02-15T04:16:43;41.05;;;28.33;;
52764;SDS011;38650;44.536;18.664;2024-02-15T04:19:09;34.05;;;25.88;;
52764;SDS011;38650;44.536;18.664;2024-02-15T04:21:35;30.27;;;22.98;;
52764;SDS011;38650;44.536;18.664;2024-02-15T04:24:01;30.15;;;22.70;;
52764;SDS011;38650;44.536;18.664;2024-02-15T04:26:27;18.65;;;15.05;;
52764;SDS011;38650;44.536;18.664;2024-02-15T04:28:55;20.75;;;15.48;;
52764;SDS011;38650;44.536;18.664;2024-02-15T04:31:22;21.13;;;16.58;;
52764;SDS011;38650;44.536;18.664;2024-02-15T04:33:51;19.35;;;16.10;;
52764;SDS011;38650;44.536;18.664;2024-02-15T04:36:18;28.80;;;20.98;;
52764;SDS011;38650;44.536;18.664;2024-02-15T04:38:48;20.45;;;15.52;;
52764;SDS011;38650;44.536;18.664;2024-02-15T04:41:18;16.20;;;13.10;;
52764;SDS011;38650;44.536;18.664;2024-02-15T04:43:50;17.02;;;13.52;;
52764;SDS011;38650;44.536;18.664;2024-02-15T04:46:17;14.23;;;11.00;;
52764;SDS011;38650;44.536;18.664;2024-02-15T04:48:47;13.38;;;11.52;;
52764;SDS011;38650;44.536;18.664;2024-02-15T04:51:14;11.23;;;9.98;;
52764;SDS011;38650;44.536;18.664;2024-02-15T04:53:41;13.13;;;10.63;;
52764;SDS011;38650;44.536;18.664;2024-02-15T04:56:08;11.50;;;9.60;;
52764;SDS011;38650;44.536;18.664;2024-02-15T04:58:39;11.25;;;9.40;;
52764;SDS011;38650;44.536;18.664;2024-02-15T05:01:16;16.60;;;12.68;;
52764;SDS011;38650;44.536;18.664;2024-02-15T05:03:46;14.30;;;10.43;;
52764;SDS011;38650;44.536;18.664;2024-02-15T05:06:12;15.32;;;11.88;;
52764;SDS011;38650;44.536;18.664;2024-02-15T05:08:40;16.33;;;13.18;;
52764;SDS011;38650;44.536;18.664;2024-02-15T05:11:09;16.40;;;11.93;;
52764;SDS011;38650;44.536;18.664;2024-02-15T05:13:47;20.90;;;16.40;;
52764;SDS011;38650;44.536;18.664;2024-02-15T05:16:16;16.60;;;12.55;;
52764;SDS011;38650;44.536;18.664;2024-02-15T05:18:41;35.53;;;30.33;;
52764;SDS011;38650;44.536;18.664;2024-02-15T05:21:07;26.95;;;23.35;;
52764;SDS011;38650;44.536;18.664;2024-02-15T05:23:35;44.45;;;34.03;;
52764;SDS011;38650;44.536;18.664;2024-02-15T05:26:02;31.63;;;25.48;;
52764;SDS011;38650;44.536;18.664;2024-02-15T05:28:28;46.33;;;34.50;;
52764;SDS011;38650;44.536;18.664;2024-02-15T05:33:43;16.63;;;13.27;;
52764;SDS011;38650;44.536;18.664;2024-02-15T05:36:12;19.75;;;15.07;;
52764;SDS011;38650;44.536;18.664;2024-02-15T05:38:45;15.57;;;12.80;;
52764;SDS011;38650;44.536;18.664;2024-02-15T05:41:17;15.93;;;12.23;;
52764;SDS011;38650;44.536;18.664;2024-02-15T05:43:44;13.30;;;10.43;;
52764;SDS011;38650;44.536;18.664;2024-02-15T05:46:11;73.55;;;44.28;;
52764;SDS011;38650;44.536;18.664;2024-02-15T05:48:37;121.07;;;72.70;;
52764;SDS011;38650;44.536;18.664;2024-02-15T05:51:04;60.88;;;40.65;;
52764;SDS011;38650;44.536;18.664;2024-02-15T05:53:31;59.03;;;38.92;;
52764;SDS011;38650;44.536;18.664;2024-02-15T05:56:01;49.72;;;34.30;;
52764;SDS011;38650;44.536;18.664;2024-02-15T05:58:30;37.78;;;26.88;;
52764;SDS011;38650;44.536;18.664;2024-02-15T06:00:57;30.20;;;22.65;;
52764;SDS011;38650;44.536;18.664;2024-02-15T06:03:29;27.83;;;19.27;;
52764;SDS011;38650;44.536;18.664;2024-02-15T06:05:56;22.25;;;17.67;;
52764;SDS011;38650;44.536;18.664;2024-02-15T06:08:29;20.02;;;15.52;;
52764;SDS011;38650;44.536;18.664;2024-02-15T06:10:55;17.40;;;14.48;;
52764;SDS011;38650;44.536;18.664;2024-02-15T06:13:21;16.30;;;12.63;;
52764;SDS011;38650;44.536;18.664;2024-02-15T06:15:48;16.85;;;12.52;;
52764;SDS011;38650;44.536;18.664;2024-02-15T06:18:21;11.15;;;9.88;;
52764;SDS011;38650;44.536;18.664;2024-02-15T06:20:49;12.52;;;10.30;;
52764;SDS011;38650;44.536;18.664;2024-02-15T06:23:18;13.63;;;10.05;;
52764;SDS011;38650;44.536;18.664;2024-02-15T06:25:44;14.13;;;11.13;;
52764;SDS011;38650;44.536;18.664;2024-02-15T06:28:16;11.60;;;10.00;;
52764;SDS011;38650;44.536;18.664;2024-02-15T06:31:08;15.20;;;11.73;;
52764;SDS011;38650;44.536;18.664;2024-02-15T06:33:53;9.98;;;8.65;;
52764;SDS011;38650;44.536;18.664;2024-02-15T06:36:57;10.60;;;9.50;;
52764;SDS011;38650;44.536;18.664;2024-02-15T06:39:43;37.67;;;28.40;;
52764;SDS011;38650;44.536;18.664;2024-02-15T06:42:12;36.08;;;27.45;;
52764;SDS011;38650;44.536;18.664;2024-02-15T06:44:47;35.45;;;27.95;;
52764;SDS011;38650;44.536;18.664;2024-02-15T06:47:13;33.90;;;27.90;;
52764;SDS011;38650;44.536;18.664;2024-02-15T06:49:42;31.10;;;26.25;;
52764;SDS011;38650;44.536;18.664;2024-02-15T06:52:10;36.72;;;29.67;;
52764;SDS011;38650;44.536;18.664;2024-02-15T06:54:38;29.58;;;24.25;;
52764;SDS011;38650;44.536;18.664;2024-02-15T06:57:04;25.10;;;21.63;;
52764;SDS011;38650;44.536;18.664;2024-02-15T06:59:31;22.90;;;19.10;;
52764;SDS011;38650;44.536;18.664;2024-02-15T07:01:57;21.08;;;17.20;;
52764;SDS011;38650;44.536;18.664;2024-02-15T07:04:23;18.50;;;16.05;;
52764;SDS011;38650;44.536;18.664;2024-02-15T07:06:51;20.25;;;16.73;;
52764;SDS011;38650;44.536;18.664;2024-02-15T07:09:19;19.00;;;16.73;;
52764;SDS011;38650;44.536;18.664;2024-02-15T07:11:46;27.15;;;18.48;;
52764;SDS011;38650;44.536;18.664;2024-02-15T07:14:13;19.88;;;16.58;;
52764;SDS011;38650;44.536;18.664;2024-02-15T07:16:46;20.05;;;15.80;;
52764;SDS011;38650;44.536;18.664;2024-02-15T07:19:12;25.77;;;19.50;;
52764;SDS011;38650;44.536;18.664;2024-02-15T07:21:39;18.80;;;15.80;;
52764;SDS011;38650;44.536;18.664;2024-02-15T07:24:08;21.70;;;17.77;;
52764;SDS011;38650;44.536;18.664;2024-02-15T07:26:35;20.20;;;16.08;;
52764;SDS011;38650;44.536;18.664;2024-02-15T07:29:01;18.27;;;15.43;;
52764;SDS011;38650;44.536;18.664;2024-02-15T07:31:31;21.02;;;16.58;;
52764;SDS011;38650;44.536;18.664;2024-02-15T07:33:57;21.58;;;17.02;;
52764;SDS011;38650;44.536;18.664;2024-02-15T07:36:23;20.02;;;16.15;;
52764;SDS011;38650;44.536;18.664;2024-02-15T07:38:50;22.75;;;17.92;;
52764;SDS011;38650;44.536;18.664;2024-02-15T07:41:18;18.30;;;15.20;;
52764;SDS011;38650;44.536;18.664;2024-02-15T07:43:47;18.35;;;15.43;;
52764;SDS011;38650;44.536;18.664;2024-02-15T07:46:15;23.60;;;20.13;;
52764;SDS011;38650;44.536;18.664;2024-02-15T07:48:44;23.20;;;20.35;;
52764;SDS011;38650;44.536;18.664;2024-02-15T07:51:17;18.67;;;16.33;;
52764;SDS011;38650;44.536;18.664;2024-02-15T07:53:44;19.33;;;17.23;;
52764;SDS011;38650;44.536;18.664;2024-02-15T07:56:10;24.83;;;20.73;;
52764;SDS011;38650;44.536;18.664;2024-02-15T07:58:43;25.17;;;20.73;;
52764;SDS011;38650;44.536;18.664;2024-02-15T08:01:13;20.48;;;17.45;;
52764;SDS011;38650;44.536;18.664;2024-02-15T08:03:40;23.73;;;18.55;;
52764;SDS011;38650;44.536;18.664;2024-02-15T08:06:15;20.35;;;18.17;;
52764;SDS011;38650;44.536;18.664;2024-02-15T08:08:45;23.83;;;19.40;;
52764;SDS011;38650;44.536;18.664;2024-02-15T08:11:16;19.20;;;17.20;;
52764;SDS011;38650;44.536;18.664;2024-02-15T08:13:52;26.23;;;19.10;;
52764;SDS011;38650;44.536;18.664;2024-02-15T08:16:24;21.05;;;17.38;;
52764;SDS011;38650;44.536;18.664;2024-02-15T08:18:53;20.35;;;18.08;;
52764;SDS011;38650;44.536;18.664;2024-02-15T08:21:26;24.35;;;21.02;;
52764;SDS011;38650;44.536;18.664;2024-02-15T08:23:58;29.77;;;22.33;;
52764;SDS011;38650;44.536;18.664;2024-02-15T08:26:26;22.80;;;20.10;;
52764;SDS011;38650;44.536;18.664;2024-02-15T08:28:52;26.70;;;21.02;;
52764;SDS011;38650;44.536;18.664;2024-02-15T08:31:18;24.15;;;20.67;;
52764;SDS011;38650;44.536;18.664;2024-02-15T08:33:57;21.42;;;18.40;;
52764;SDS011;38650;44.536;18.664;2024-02-15T08:36:23;22.83;;;19.67;;
52764;SDS011;38650;44.536;18.664;2024-02-15T08:38:49;25.08;;;21.90;;
52764;SDS011;38650;44.536;18.664;2024-02-15T08:41:15;23.17;;;20.33;;
52764;SDS011;38650;44.536;18.664;2024-02-15T08:43:43;24.13;;;19.67;;
52764;SDS011;38650;44.536;18.664;2024-02-15T08:46:13;19.63;;;16.95;;
52764;SDS011;38650;44.536;18.664;2024-02-15T08:48:39;18.48;;;16.33;;
52764;SDS011;38650;44.536;18.664;2024-02-15T08:51:06;18.65;;;16.05;;
52764;SDS011;38650;44.536;18.664;2024-02-15T08:53:34;21.42;;;18.42;;
52764;SDS011;38650;44.536;18.664;2024-02-15T08:56:02;18.33;;;16.42;;
52764;SDS011;38650;44.536;18.664;2024-02-15T08:58:28;15.95;;;14.35;;
52764;SDS011;38650;44.536;18.664;2024-02-15T09:00:55;23.60;;;19.35;;
52764;SDS011;38650;44.536;18.664;2024-02-15T09:03:21;21.33;;;17.58;;
52764;SDS011;38650;44.536;18.664;2024-02-15T09:05:47;21.70;;;18.33;;
52764;SDS011;38650;44.536;18.664;2024-02-15T09:08:13;28.70;;;21.17;;
52764;SDS011;38650;44.536;18.664;2024-02-15T09:10:40;23.40;;;19.90;;
52764;SDS011;38650;44.536;18.664;2024-02-15T09:13:07;21.75;;;18.83;;
52764;SDS011;38650;44.536;18.664;2024-02-15T09:15:33;26.77;;;21.73;;
52764;SDS011;38650;44.536;18.664;2024-02-15T09:18:00;21.83;;;19.52;;
52764;SDS011;38650;44.536;18.664;2024-02-15T09:20:26;22.15;;;18.75;;
52764;SDS011;38650;44.536;18.664;2024-02-15T09:22:53;21.00;;;18.88;;
52764;SDS011;38650;44.536;18.664;2024-02-15T09:25:20;23.27;;;20.88;;
52764;SDS011;38650;44.536;18.664;2024-02-15T09:27:49;29.98;;;25.67;;
52764;SDS011;38650;44.536;18.664;2024-02-15T09:30:17;27.85;;;24.55;;
52764;SDS011;38650;44.536;18.664;2024-02-15T09:32:44;30.75;;;25.95;;
52764;SDS011;38650;44.536;18.664;2024-02-15T09:35:10;27.02;;;23.98;;
52764;SDS011;38650;44.536;18.664;2024-02-15T09:37:38;25.08;;;22.42;;
52764;SDS011;38650;44.536;18.664;2024-02-15T09:40:10;24.60;;;22.10;;
52764;SDS011;38650;44.536;18.664;2024-02-15T09:42:37;25.63;;;22.40;;
52764;SDS011;38650;44.536;18.664;2024-02-15T09:45:05;25.60;;;22.73;;
52764;SDS011;38650;44.536;18.664;2024-02-15T09:47:35;26.73;;;23.83;;
52764;SDS011;38650;44.536;18.664;2024-02-15T09:50:02;35.20;;;31.42;;
52764;SDS011;38650;44.536;18.664;2024-02-15T09:52:31;32.22;;;28.92;;
52764;SDS011;38650;44.536;18.664;2024-02-15T09:55:00;31.67;;;28.33;;
52764;SDS011;38650;44.536;18.664;2024-02-15T09:57:28;30.10;;;26.88;;
52764;SDS011;38650;44.536;18.664;2024-02-15T09:59:57;31.00;;;27.35;;
52764;SDS011;38650;44.536;18.664;2024-02-15T10:02:23;30.52;;;26.35;;
52764;SDS011;38650;44.536;18.664;2024-02-15T10:04:51;33.80;;;27.40;;
52764;SDS011;38650;44.536;18.664;2024-02-15T10:07:26;27.67;;;24.77;;
52764;SDS011;38650;44.536;18.664;2024-02-15T10:09:53;27.00;;;24.02;;
52764;SDS011;38650;44.536;18.664;2024-02-15T10:12:23;27.75;;;24.35;;
52764;SDS011;38650;44.536;18.664;2024-02-15T10:15:03;23.65;;;21.15;;
52764;SDS011;38650;44.536;18.664;2024-02-15T10:17:32;22.42;;;20.10;;
52764;SDS011;38650;44.536;18.664;2024-02-15T10:20:03;20.75;;;18.73;;
52764;SDS011;38650;44.536;18.664;2024-02-15T10:22:33;18.63;;;16.83;;
52764;SDS011;38650;44.536;18.664;2024-02-15T10:25:12;17.63;;;15.93;;
52764;SDS011;38650;44.536;18.664;2024-02-15T10:27:41;17.35;;;15.57;;
52764;SDS011;38650;44.536;18.664;2024-02-15T10:30:19;18.00;;;16.17;;
52764;SDS011;38650;44.536;18.664;2024-02-15T10:32:45;16.23;;;14.57;;
52764;SDS011;38650;44.536;18.664;2024-02-15T10:35:22;17.70;;;15.90;;
52764;SDS011;38650;44.536;18.664;2024-02-15T10:37:48;16.77;;;15.13;;
52764;SDS011;38650;44.536;18.664;2024-02-15T10:40:18;15.98;;;14.38;;
52764;SDS011;38650;44.536;18.664;2024-02-15T10:42:48;14.80;;;13.38;;
52764;SDS011;38650;44.536;18.664;2024-02-15T10:45:16;14.90;;;13.40;;
52764;SDS011;38650;44.536;18.664;2024-02-15T10:47:46;13.45;;;12.15;;
52764;SDS011;38650;44.536;18.664;2024-02-15T10:50:15;13.80;;;12.43;;
52764;SDS011;38650;44.536;18.664;2024-02-15T10:52:59;13.32;;;11.95;;
52764;SDS011;38650;44.536;18.664;2024-02-15T10:55:52;14.30;;;12.90;;
52764;SDS011;38650;44.536;18.664;2024-02-15T10:58:25;14.73;;;13.23;;
52764;SDS011;38650;44.536;18.664;2024-02-15T11:00:57;13.30;;;12.00;;
52764;SDS011;38650;44.536;18.664;2024-02-15T11:03:30;13.63;;;12.23;;
52764;SDS011;38650;44.536;18.664;2024-02-15T11:06:01;13.60;;;12.23;;
52764;SDS011;38650;44.536;18.664;2024-02-15T11:08:29;12.40;;;11.20;;
52764;SDS011;38650;44.536;18.664;2024-02-15T11:10:57;11.65;;;10.40;;
52764;SDS011;38650;44.536;18.664;2024-02-15T11:13:24;10.57;;;9.55;;
52764;SDS011;38650;44.536;18.664;2024-02-15T11:15:50;9.40;;;8.50;;
52764;SDS011;38650;44.536;18.664;2024-02-15T11:24:27;9.52;;;8.15;;
52764;SDS011;38650;44.536;18.664;2024-02-15T11:27:03;8.50;;;7.68;;
52764;SDS011;38650;44.536;18.664;2024-02-15T11:35:15;8.20;;;7.47;;
52764;SDS011;38650;44.536;18.664;2024-02-15T11:42:57;7.63;;;6.93;;
52764;SDS011;38650;44.536;18.664;2024-02-15T11:45:24;8.23;;;7.38;;
52764;SDS011;38650;44.536;18.664;2024-02-15T11:47:51;6.65;;;6.03;;
52764;SDS011;38650;44.536;18.664;2024-02-15T11:50:19;7.05;;;6.35;;
52764;SDS011;38650;44.536;18.664;2024-02-15T11:52:46;6.90;;;6.20;;
52764;SDS011;38650;44.536;18.664;2024-02-15T11:55:14;6.57;;;5.97;;
52764;SDS011;38650;44.536;18.664;2024-02-15T11:57:57;7.97;;;5.28;;
52764;SDS011;38650;44.536;18.664;2024-02-15T12:00:39;6.43;;;5.82;;
52764;SDS011;38650;44.536;18.664;2024-02-15T12:03:24;6.35;;;5.75;;
52764;SDS011;38650;44.536;18.664;2024-02-15T12:06:08;6.38;;;5.50;;
52764;SDS011;38650;44.536;18.664;2024-02-15T12:08:53;5.30;;;4.80;;
52764;SDS011;38650;44.536;18.664;2024-02-15T12:11:38;5.57;;;4.97;;
52764;SDS011;38650;44.536;18.664;2024-02-15T12:14:25;6.22;;;4.90;;
52764;SDS011;38650;44.536;18.664;2024-02-15T12:17:10;5.03;;;4.50;;
52764;SDS011;38650;44.536;18.664;2024-02-15T12:19:56;4.50;;;4.10;;
52764;SDS011;38650;44.536;18.664;2024-02-15T12:22:35;4.97;;;4.00;;
52764;SDS011;38650;44.536;18.664;2024-02-15T12:25:07;4.07;;;3.78;;
52764;SDS011;38650;44.536;18.664;2024-02-15T12:27:39;4.75;;;3.90;;
52764;SDS011;38650;44.536;18.664;2024-02-15T12:30:15;3.80;;;3.50;;
52764;SDS011;38650;44.536;18.664;2024-02-15T12:32:50;4.00;;;3.65;;
52764;SDS011;38650;44.536;18.664;2024-02-15T12:35:17;4.53;;;4.13;;
52764;SDS011;38650;44.536;18.664;2024-02-15T12:37:48;4.18;;;3.78;;
52764;SDS011;38650;44.536;18.664;2024-02-15T12:40:33;4.10;;;3.80;;
52764;SDS011;38650;44.536;18.664;2024-02-15T12:43:01;3.90;;;3.60;;
52764;SDS011;38650;44.536;18.664;2024-02-15T12:45:30;3.13;;;2.80;;
52764;SDS011;38650;44.536;18.664;2024-02-15T12:47:57;3.13;;;2.83;;
52764;SDS011;38650;44.536;18.664;2024-02-15T12:50:24;3.13;;;2.80;;
52764;SDS011;38650;44.536;18.664;2024-02-15T12:52:53;3.33;;;2.47;;
52764;SDS011;38650;44.536;18.664;2024-02-15T12:55:28;3.20;;;2.90;;
52764;SDS011;38650;44.536;18.664;2024-02-15T12:58:01;3.25;;;2.80;;
52764;SDS011;38650;44.536;18.664;2024-02-15T13:00:34;3.00;;;2.80;;
52764;SDS011;38650;44.536;18.664;2024-02-15T13:03:05;2.50;;;2.30;;
52764;SDS011;38650;44.536;18.664;2024-02-15T13:05:35;2.80;;;2.60;;
52764;SDS011;38650;44.536;18.664;2024-02-15T13:08:02;2.88;;;2.58;;
52764;SDS011;38650;44.536;18.664;2024-02-15T13:10:38;5.57;;;2.50;;
52764;SDS011;38650;44.536;18.664;2024-02-15T13:13:04;2.72;;;2.28;;
52764;SDS011;38650;44.536;18.664;2024-02-15T13:15:31;2.50;;;2.30;;
52764;SDS011;38650;44.536;18.664;2024-02-15T13:17:59;2.33;;;2.13;;
52764;SDS011;38650;44.536;18.664;2024-02-15T13:20:26;2.40;;;2.00;;
52764;SDS011;38650;44.536;18.664;2024-02-15T13:25:27;2.50;;;2.30;;
52764;SDS011;38650;44.536;18.664;2024-02-15T13:27:54;2.17;;;2.08;;
52764;SDS011;38650;44.536;18.664;2024-02-15T13:30:20;2.40;;;2.20;;
52764;SDS011;38650;44.536;18.664;2024-02-15T13:32:48;2.45;;;2.20;;
52764;SDS011;38650;44.536;18.664;2024-02-15T13:35:17;2.08;;;1.98;;
52764;SDS011;38650;44.536;18.664;2024-02-15T13:37:48;2.72;;;2.03;;
52764;SDS011;38650;44.536;18.664;2024-02-15T13:40:17;2.50;;;2.25;;
52764;SDS011;38650;44.536;18.664;2024-02-15T13:42:45;3.78;;;2.40;;
52764;SDS011;38650;44.536;18.664;2024-02-15T13:45:18;4.70;;;2.63;;
52764;SDS011;38650;44.536;18.664;2024-02-15T13:47:50;3.42;;;2.88;;
52764;SDS011;38650;44.536;18.664;2024-02-15T13:50:18;3.55;;;3.03;;
52764;SDS011;38650;44.536;18.664;2024-02-15T13:52:44;3.22;;;2.92;;
52764;SDS011;38650;44.536;18.664;2024-02-15T13:55:13;3.25;;;2.97;;
52764;SDS011;38650;44.536;18.664;2024-02-15T13:57:40;3.88;;;3.45;;
52764;SDS011;38650;44.536;18.664;2024-02-15T14:00:11;3.70;;;3.40;;
52764;SDS011;38650;44.536;18.664;2024-02-15T14:02:49;4.78;;;3.22;;
52764;SDS011;38650;44.536;18.664;2024-02-15T14:05:16;3.70;;;3.30;;
52764;SDS011;38650;44.536;18.664;2024-02-15T14:07:46;3.67;;;3.13;;
52764;SDS011;38650;44.536;18.664;2024-02-15T14:10:13;3.65;;;3.08;;
52764;SDS011;38650;44.536;18.664;2024-02-15T14:12:39;2.95;;;2.75;;
52764;SDS011;38650;44.536;18.664;2024-02-15T14:15:04;2.70;;;2.50;;
52764;SDS011;38650;44.536;18.664;2024-02-15T14:17:31;2.97;;;2.50;;
52764;SDS011;38650;44.536;18.664;2024-02-15T14:19:57;2.30;;;2.10;;
52764;SDS011;38650;44.536;18.664;2024-02-15T14:22:23;2.60;;;2.40;;
52764;SDS011;38650;44.536;18.664;2024-02-15T14:24:53;3.10;;;2.80;;
52764;SDS011;38650;44.536;18.664;2024-02-15T14:27:19;2.70;;;2.50;;
52764;SDS011;38650;44.536;18.664;2024-02-15T14:29:44;3.17;;;2.78;;
52764;SDS011;38650;44.536;18.664;2024-02-15T14:32:30;2.40;;;2.20;;
52764;SDS011;38650;44.536;18.664;2024-02-15T14:35:14;3.15;;;2.70;;
52764;SDS011;38650;44.536;18.664;2024-02-15T14:37:41;2.63;;;2.42;;
52764;SDS011;38650;44.536;18.664;2024-02-15T14:40:08;2.60;;;2.20;;
52764;SDS011;38650;44.536;18.664;2024-02-15T14:42:34;2.72;;;2.53;;
52764;SDS011;38650;44.536;18.664;2024-02-15T14:45:01;2.55;;;2.20;;
52764;SDS011;38650;44.536;18.664;2024-02-15T14:47:26;2.33;;;1.95;;
52764;SDS011;38650;44.536;18.664;2024-02-15T14:49:52;2.50;;;2.30;;